createdAt,value
2023-11-14T00:00:03.434Z,17.70
2023-11-14T00:00:26.488Z,17.20
2023-11-14T00:00:49.317Z,15.88
2023-11-14T00:01:12.174Z,16.55
2023-11-14T00:01:35.023Z,16.75
2023-11-14T00:01:57.972Z,18.00
2023-11-14T00:02:20.710Z,14.77
2023-11-14T00:02:43.576Z,16.92
2023-11-14T00:03:07.337Z,17.73
2023-11-14T00:03:30.643Z,15.43
2023-11-14T00:03:53.646Z,16.27
2023-11-14T00:04:17.153Z,15.70
2023-11-14T00:04:40.604Z,17.75
2023-11-14T00:05:04.040Z,16.48
2023-11-14T00:05:26.976Z,17.60
2023-11-14T00:05:50.239Z,16.52
2023-11-14T00:06:13.084Z,16.00
2023-11-14T00:06:36.405Z,16.23
2023-11-14T00:07:03.274Z,18.17
2023-11-14T00:07:26.670Z,17.42
2023-11-14T00:07:50.757Z,15.40
2023-11-14T00:08:13.817Z,15.65
2023-11-14T00:08:36.672Z,14.80
2023-11-14T00:08:59.498Z,18.58
2023-11-14T00:09:22.397Z,17.77
2023-11-14T00:09:49.276Z,18.13
2023-11-14T00:10:13.540Z,15.52
2023-11-14T00:10:36.402Z,17.35
2023-11-14T00:10:59.356Z,16.02
2023-11-14T00:11:23.432Z,15.50
2023-11-14T00:11:46.788Z,16.05
2023-11-14T00:12:09.800Z,17.10
2023-11-14T00:12:32.656Z,17.70
2023-11-14T00:12:55.631Z,17.50
2023-11-14T00:13:18.646Z,17.52
2023-11-14T00:13:41.644Z,16.63
2023-11-14T00:14:04.961Z,14.95
2023-11-14T00:14:27.951Z,14.93
2023-11-14T00:14:50.855Z,16.45
2023-11-14T00:15:13.782Z,15.80
2023-11-14T00:15:36.675Z,16.77
2023-11-14T00:15:59.891Z,16.95
2023-11-14T00:16:23.092Z,16.10
2023-11-14T00:16:46.389Z,16.52
2023-11-14T00:17:09.959Z,15.90
2023-11-14T00:17:33.602Z,15.90
2023-11-14T00:17:56.996Z,15.52
2023-11-14T00:18:19.900Z,16.63
2023-11-14T00:18:43.440Z,16.73
2023-11-14T00:19:06.249Z,18.80
2023-11-14T00:19:29.470Z,19.10
2023-11-14T00:19:52.316Z,19.02
2023-11-14T00:21:14.729Z,18.83
2023-11-14T00:21:37.488Z,17.02
2023-11-14T00:22:02.688Z,16.17
2023-11-14T00:22:26.025Z,16.98
2023-11-14T00:22:49.050Z,17.10
2023-11-14T00:23:11.898Z,15.75
2023-11-14T00:23:34.946Z,17.35
2023-11-14T00:23:57.725Z,17.23
2023-11-14T00:24:20.442Z,17.77
2023-11-14T00:24:43.267Z,16.38
2023-11-14T00:25:08.325Z,17.58
2023-11-14T00:25:31.151Z,20.70
2023-11-14T00:25:54.088Z,17.67
2023-11-14T00:26:16.932Z,15.55
2023-11-14T00:26:40.240Z,17.50
2023-11-14T00:27:03.135Z,17.02
2023-11-14T00:27:26.073Z,17.02
2023-11-14T00:27:48.818Z,14.93
2023-11-14T00:28:12.409Z,15.55
2023-11-14T00:28:35.198Z,18.40
2023-11-14T00:28:57.956Z,17.08
2023-11-14T00:29:21.170Z,17.52
2023-11-14T00:29:43.991Z,15.93
2023-11-14T00:30:09.216Z,15.98
2023-11-14T00:30:31.890Z,17.33
2023-11-14T00:30:54.607Z,17.75
2023-11-14T00:31:17.380Z,18.17
2023-11-14T00:31:40.290Z,16.88
2023-11-14T00:32:04.061Z,17.80
2023-11-14T00:32:26.901Z,18.85
2023-11-14T00:32:50.617Z,21.13
2023-11-14T00:33:13.746Z,18.45
2023-11-14T00:33:36.893Z,17.08
2023-11-14T00:33:59.748Z,18.20
2023-11-14T00:34:23.317Z,19.00
2023-11-14T00:34:46.353Z,16.27
2023-11-14T00:35:09.768Z,16.60
2023-11-14T00:35:32.448Z,16.90
2023-11-14T00:35:55.733Z,18.95
2023-11-14T00:36:18.822Z,18.48
2023-11-14T00:36:41.982Z,19.38
2023-11-14T00:37:05.179Z,17.48
2023-11-14T00:37:29.532Z,17.77
2023-11-14T00:37:52.325Z,17.05
2023-11-14T00:38:15.089Z,15.25
2023-11-14T00:38:37.942Z,17.42
2023-11-14T00:39:01.707Z,17.98
2023-11-14T00:39:25.092Z,16.85
2023-11-14T00:39:48.237Z,15.07
2023-11-14T00:41:31.358Z,18.98
2023-11-14T00:41:55.078Z,17.15
2023-11-14T00:42:18.486Z,16.27
2023-11-14T00:42:41.243Z,17.65
2023-11-14T00:43:04.021Z,16.98
2023-11-14T00:43:26.849Z,15.88
2023-11-14T00:43:49.671Z,16.83
2023-11-14T00:44:12.486Z,17.27
2023-11-14T00:44:35.310Z,16.00
2023-11-14T00:44:58.067Z,17.08
2023-11-14T00:45:20.838Z,17.45
2023-11-14T00:45:43.675Z,19.45
2023-11-14T00:46:14.286Z,17.50
2023-11-14T00:46:37.242Z,17.13
2023-11-14T00:47:00.221Z,16.98
2023-11-14T00:47:23.273Z,20.30
2023-11-14T00:47:46.295Z,18.70
2023-11-14T00:48:09.201Z,16.90
2023-11-14T00:48:31.882Z,16.83
2023-11-14T00:48:54.636Z,15.45
2023-11-14T00:49:17.446Z,15.38
2023-11-14T00:49:40.322Z,17.00
2023-11-14T00:50:03.971Z,21.27
2023-11-14T00:50:26.797Z,18.08
2023-11-14T00:50:49.562Z,17.70
2023-11-14T00:51:12.490Z,18.13
2023-11-14T00:51:35.911Z,17.42
2023-11-14T00:51:59.274Z,17.55
2023-11-14T00:52:22.108Z,16.38
2023-11-14T00:52:48.088Z,17.65
2023-11-14T00:53:11.599Z,17.45
2023-11-14T00:53:34.412Z,17.02
2023-11-14T00:53:58.000Z,19.17
2023-11-14T00:54:20.849Z,17.30
2023-11-14T00:54:43.637Z,16.45
2023-11-14T00:55:08.289Z,20.98
2023-11-14T00:55:32.461Z,18.63
2023-11-14T00:55:56.763Z,16.88
2023-11-14T00:56:19.590Z,18.27
2023-11-14T00:56:42.500Z,18.17
2023-11-14T00:57:05.711Z,19.70
2023-11-14T00:57:28.545Z,19.50
2023-11-14T00:57:51.334Z,19.73
2023-11-14T00:58:14.018Z,19.13
2023-11-14T00:58:36.910Z,20.20
2023-11-14T00:58:59.972Z,20.17
2023-11-14T00:59:22.885Z,18.65
2023-11-14T00:59:45.704Z,18.35
2023-11-14T01:00:12.060Z,20.38
2023-11-14T01:00:35.074Z,20.77
2023-11-14T01:00:57.895Z,19.92
2023-11-14T01:01:20.917Z,19.08
2023-11-14T01:01:43.714Z,20.50
2023-11-14T01:02:07.679Z,19.65
2023-11-14T01:02:30.786Z,20.17
2023-11-14T01:02:56.066Z,19.02
2023-11-14T01:03:22.340Z,21.05
2023-11-14T01:03:45.324Z,21.92
2023-11-14T01:04:11.129Z,20.52
2023-11-14T01:04:40.344Z,19.08
2023-11-14T01:05:03.301Z,18.33
2023-11-14T01:05:26.125Z,20.00
2023-11-14T01:05:49.047Z,20.60
2023-11-14T01:06:11.897Z,22.08
2023-11-14T01:06:34.670Z,21.30
2023-11-14T01:06:57.427Z,20.25
2023-11-14T01:07:20.251Z,19.40
2023-11-14T01:07:43.081Z,18.58
2023-11-14T01:08:06.516Z,19.92
2023-11-14T01:08:29.364Z,17.42
2023-11-14T01:08:54.198Z,20.53
2023-11-14T01:09:17.266Z,19.35
2023-11-14T01:09:40.098Z,18.88
2023-11-14T01:10:05.128Z,21.15
2023-11-14T01:10:28.121Z,19.70
2023-11-14T01:10:52.428Z,19.08
2023-11-14T01:11:15.314Z,20.45
2023-11-14T01:11:38.307Z,19.30
2023-11-14T01:12:01.304Z,19.02
2023-11-14T01:12:25.167Z,18.60
2023-11-14T01:12:48.003Z,18.80
2023-11-14T01:13:11.280Z,22.48
2023-11-14T01:13:34.082Z,22.95
2023-11-14T01:13:56.997Z,22.10
2023-11-14T01:14:19.869Z,19.42
2023-11-14T01:14:42.732Z,19.77
2023-11-14T01:15:06.329Z,17.30
2023-11-14T01:15:30.168Z,19.42
2023-11-14T01:15:52.971Z,22.80
2023-11-14T01:16:16.546Z,20.33
2023-11-14T01:16:39.473Z,20.00
2023-11-14T01:17:02.683Z,22.38
2023-11-14T01:17:26.924Z,19.30
2023-11-14T01:17:50.356Z,18.45
2023-11-14T01:18:13.400Z,19.25
2023-11-14T01:18:36.364Z,21.35
2023-11-14T01:18:59.301Z,21.52
2023-11-14T01:19:22.330Z,20.38
2023-11-14T01:19:46.530Z,20.15
2023-11-14T01:20:12.421Z,19.13
2023-11-14T01:20:35.345Z,19.45
2023-11-14T01:20:58.219Z,20.48
2023-11-14T01:21:21.159Z,20.55
2023-11-14T01:21:43.989Z,18.17
2023-11-14T01:22:06.953Z,19.65
2023-11-14T01:22:29.879Z,22.48
2023-11-14T01:22:52.809Z,20.55
2023-11-14T01:23:18.525Z,18.27
2023-11-14T01:23:42.588Z,16.02
2023-11-14T01:24:06.523Z,16.20
2023-11-14T01:24:29.453Z,16.98
2023-11-14T01:24:52.289Z,17.52
2023-11-14T01:25:15.731Z,17.25
2023-11-14T01:25:40.592Z,20.02
2023-11-14T01:26:05.602Z,20.15
2023-11-14T01:26:34.168Z,19.20
2023-11-14T01:26:56.985Z,18.60
2023-11-14T01:27:19.805Z,18.33
2023-11-14T01:27:43.903Z,13.32
2023-11-14T01:28:06.676Z,11.07
2023-11-14T01:28:29.491Z,14.68
2023-11-14T01:28:52.390Z,15.18
2023-11-14T01:29:15.906Z,12.55
2023-11-14T01:29:39.309Z,14.52
2023-11-14T01:30:02.075Z,16.65
2023-11-14T01:30:25.171Z,18.48
2023-11-14T01:30:48.076Z,18.35
2023-11-14T01:31:21.677Z,18.63
2023-11-14T01:31:44.522Z,17.25
2023-11-14T01:32:08.092Z,17.15
2023-11-14T01:32:31.022Z,17.23
2023-11-14T01:32:54.709Z,17.42
2023-11-14T01:33:17.617Z,20.13
2023-11-14T01:33:40.503Z,23.40
2023-11-14T01:34:04.195Z,17.00
2023-11-14T01:34:27.276Z,17.45
2023-11-14T01:34:50.174Z,17.92
2023-11-14T01:35:13.226Z,18.05
2023-11-14T01:35:36.060Z,16.35
2023-11-14T01:35:58.930Z,16.48
2023-11-14T01:36:21.676Z,18.73
2023-11-14T01:36:44.421Z,16.05
2023-11-14T01:37:07.406Z,19.33
2023-11-14T01:37:30.179Z,18.65
2023-11-14T01:37:53.005Z,17.95
2023-11-14T01:38:16.309Z,17.20
2023-11-14T01:38:39.153Z,16.02
2023-11-14T01:39:02.040Z,16.42
2023-11-14T01:39:25.340Z,17.40
2023-11-14T01:39:48.129Z,15.75
2023-11-14T01:40:12.018Z,17.45
2023-11-14T01:40:35.143Z,17.38
2023-11-14T01:40:58.033Z,18.38
2023-11-14T01:41:22.414Z,19.65
2023-11-14T01:41:46.462Z,18.20
2023-11-14T01:42:09.238Z,16.45
2023-11-14T01:42:32.050Z,17.70
2023-11-14T01:43:00.680Z,19.65
2023-11-14T01:43:23.412Z,18.48
2023-11-14T01:43:47.045Z,17.85
2023-11-14T01:44:10.564Z,17.67
2023-11-14T01:44:33.497Z,17.48
2023-11-14T01:44:56.254Z,16.58
2023-11-14T01:45:19.081Z,16.75
2023-11-14T01:45:41.897Z,16.75
2023-11-14T01:46:04.914Z,18.08
2023-11-14T01:46:27.818Z,17.70
2023-11-14T01:46:51.247Z,18.23
2023-11-14T01:47:14.288Z,16.73
2023-11-14T01:47:37.319Z,18.90
2023-11-14T01:48:00.288Z,20.48
2023-11-14T01:48:23.111Z,20.73
2023-11-14T01:48:46.480Z,20.48
2023-11-14T01:49:09.228Z,20.42
2023-11-14T01:49:32.052Z,22.85
2023-11-14T01:49:54.771Z,19.75
2023-11-14T01:50:18.448Z,17.15
2023-11-14T01:50:41.350Z,20.73
2023-11-14T01:51:04.766Z,19.42
2023-11-14T01:51:27.568Z,17.83
2023-11-14T01:51:50.321Z,17.55
2023-11-14T01:52:13.663Z,18.05
2023-11-14T01:52:36.511Z,18.85
2023-11-14T01:52:59.402Z,19.70
2023-11-14T01:53:22.263Z,18.27
2023-11-14T01:53:45.170Z,19.13
2023-11-14T01:54:08.003Z,19.77
2023-11-14T01:54:30.818Z,20.55
2023-11-14T01:54:53.642Z,22.42
2023-11-14T01:55:16.594Z,20.52
2023-11-14T01:55:39.449Z,20.73
2023-11-14T01:56:02.376Z,20.23
2023-11-14T01:56:26.719Z,19.80
2023-11-14T01:56:50.795Z,21.17
2023-11-14T01:57:13.854Z,22.38
2023-11-14T01:57:36.636Z,19.65
2023-11-14T01:57:59.435Z,20.85
2023-11-14T01:58:22.255Z,21.70
2023-11-14T01:58:45.154Z,21.77
2023-11-14T01:59:08.424Z,21.40
2023-11-14T01:59:31.295Z,22.38
2023-11-14T01:59:54.164Z,22.67
2023-11-14T02:00:17.452Z,22.85
2023-11-14T02:00:40.194Z,20.55
2023-11-14T02:01:03.915Z,19.95
2023-11-14T02:01:26.827Z,22.48
2023-11-14T02:01:49.844Z,21.75
2023-11-14T02:02:13.084Z,21.63
2023-11-14T02:02:36.043Z,20.67
2023-11-14T02:02:59.279Z,19.55
2023-11-14T02:03:23.239Z,21.33
2023-11-14T02:03:46.221Z,21.38
2023-11-14T02:04:14.018Z,21.42
2023-11-14T02:04:36.877Z,22.67
2023-11-14T02:04:59.784Z,20.80
2023-11-14T02:05:24.080Z,20.02
2023-11-14T02:05:47.391Z,19.08
2023-11-14T02:06:10.268Z,22.40
2023-11-14T02:06:32.998Z,24.90
2023-11-14T02:06:56.223Z,20.98
2023-11-14T02:07:19.028Z,23.60
2023-11-14T02:07:41.763Z,19.92
2023-11-14T02:08:04.892Z,21.17
2023-11-14T02:08:27.879Z,22.13
2023-11-14T02:08:50.760Z,21.35
2023-11-14T02:09:13.613Z,18.90
2023-11-14T02:09:36.523Z,20.00
2023-11-14T02:09:59.307Z,22.90
2023-11-14T02:10:22.175Z,22.88
2023-11-14T02:10:45.421Z,20.80
2023-11-14T02:11:08.460Z,22.25
2023-11-14T02:11:33.036Z,20.67
2023-11-14T02:11:58.556Z,21.15
2023-11-14T02:12:21.394Z,19.60
2023-11-14T02:12:44.785Z,21.45
2023-11-14T02:13:07.731Z,20.67
2023-11-14T02:13:30.714Z,21.38
2023-11-14T02:13:53.850Z,19.58
2023-11-14T02:14:17.179Z,20.02
2023-11-14T02:14:40.085Z,19.60
2023-11-14T02:15:05.560Z,20.33
2023-11-14T02:15:28.476Z,19.58
2023-11-14T02:15:51.339Z,19.65
2023-11-14T02:16:14.201Z,18.98
2023-11-14T02:16:47.100Z,20.48
2023-11-14T02:17:16.250Z,20.05
2023-11-14T02:17:42.933Z,19.55
2023-11-14T02:18:06.202Z,19.27
2023-11-14T02:18:29.093Z,19.92
2023-11-14T02:18:52.106Z,22.95
2023-11-14T02:19:15.448Z,19.63
2023-11-14T02:19:38.295Z,19.83
2023-11-14T02:20:01.159Z,23.40
2023-11-14T02:20:24.045Z,20.45
2023-11-14T02:20:47.024Z,20.60
2023-11-14T02:21:09.905Z,21.08
2023-11-14T02:21:32.685Z,21.75
2023-11-14T02:21:55.407Z,20.70
2023-11-14T02:22:18.168Z,20.35
2023-11-14T02:22:40.984Z,20.50
2023-11-14T02:23:04.885Z,22.33
2023-11-14T02:23:28.099Z,22.08
2023-11-14T02:23:51.472Z,24.40
2023-11-14T02:24:16.388Z,22.63
2023-11-14T02:24:41.558Z,19.67
2023-11-14T02:25:07.264Z,21.23
2023-11-14T02:25:30.398Z,22.38
2023-11-14T02:25:53.346Z,21.75
2023-11-14T02:26:16.235Z,19.60
2023-11-14T02:26:39.093Z,18.52
2023-11-14T02:27:02.001Z,22.10
2023-11-14T02:27:25.998Z,21.08
2023-11-14T02:27:48.764Z,21.35
2023-11-14T02:28:11.765Z,20.10
2023-11-14T02:28:34.529Z,21.27
2023-11-14T02:29:00.530Z,19.75
2023-11-14T02:29:24.456Z,20.55
2023-11-14T02:29:47.962Z,20.35
2023-11-14T02:30:12.364Z,19.42
2023-11-14T02:30:35.610Z,18.13
2023-11-14T02:30:58.618Z,20.40
2023-11-14T02:31:21.577Z,21.10
2023-11-14T02:31:44.419Z,18.33
2023-11-14T02:32:07.727Z,21.05
2023-11-14T02:32:31.903Z,20.08
2023-11-14T02:32:54.675Z,21.52
2023-11-14T02:33:17.409Z,21.55
2023-11-14T02:33:40.725Z,21.50
2023-11-14T02:34:03.516Z,19.30
2023-11-14T02:34:26.282Z,19.77
2023-11-14T02:34:49.565Z,21.85
2023-11-14T02:35:12.710Z,20.60
2023-11-14T02:35:35.540Z,20.13
2023-11-14T02:35:58.930Z,20.55
2023-11-14T02:36:21.816Z,21.45
2023-11-14T02:36:44.734Z,19.20
2023-11-14T02:37:07.501Z,19.00
2023-11-14T02:37:30.318Z,18.55
2023-11-14T02:37:53.291Z,18.63
2023-11-14T02:38:16.022Z,19.15
2023-11-14T02:38:38.776Z,19.77
2023-11-14T02:39:01.596Z,21.63
2023-11-14T02:39:24.706Z,21.50
2023-11-14T02:39:47.482Z,20.42
2023-11-14T02:40:14.567Z,21.75
2023-11-14T02:40:38.810Z,19.83
2023-11-14T02:41:01.753Z,19.17
2023-11-14T02:41:24.719Z,21.65
2023-11-14T02:41:47.665Z,22.75
2023-11-14T02:42:13.154Z,18.58
2023-11-14T02:42:35.992Z,19.30
2023-11-14T02:42:59.601Z,18.80
2023-11-14T02:43:22.438Z,19.67
2023-11-14T02:43:45.231Z,18.58
2023-11-14T02:44:08.086Z,18.15
2023-11-14T02:44:30.896Z,17.80
2023-11-14T02:44:53.856Z,19.08
2023-11-14T02:45:16.712Z,22.05
2023-11-14T02:45:39.479Z,19.65
2023-11-14T02:46:02.240Z,18.33
2023-11-14T02:46:25.105Z,18.50
2023-11-14T02:46:47.958Z,20.77
2023-11-14T02:47:11.030Z,22.25
2023-11-14T02:47:34.094Z,22.15
2023-11-14T02:47:57.154Z,21.55
2023-11-14T02:48:20.779Z,21.77
2023-11-14T02:48:43.745Z,20.95
2023-11-14T02:49:20.052Z,19.88
2023-11-14T02:49:51.717Z,19.10
2023-11-14T02:50:24.036Z,22.10
2023-11-14T02:50:52.387Z,20.60
2023-11-14T02:51:15.528Z,18.60
2023-11-14T02:51:38.312Z,19.88
2023-11-14T02:52:02.409Z,19.60
2023-11-14T02:52:25.167Z,20.92
2023-11-14T02:52:48.963Z,21.27
2023-11-14T02:53:11.829Z,18.02
2023-11-14T02:53:34.694Z,18.95
2023-11-14T02:53:57.976Z,18.35
2023-11-14T02:54:20.721Z,18.85
2023-11-14T02:54:43.502Z,22.10
2023-11-14T02:55:08.080Z,20.83
2023-11-14T02:55:32.609Z,18.95
2023-11-14T02:55:55.436Z,18.60
2023-11-14T02:56:18.218Z,18.23
2023-11-14T02:56:41.092Z,20.23
2023-11-14T02:57:09.144Z,22.25
2023-11-14T02:57:31.954Z,19.92
2023-11-14T02:57:54.778Z,21.45
2023-11-14T02:58:17.754Z,18.75
2023-11-14T02:58:40.524Z,17.30
2023-11-14T02:59:03.309Z,20.35
2023-11-14T02:59:26.296Z,21.35
2023-11-14T02:59:49.352Z,19.60
2023-11-14T03:00:17.542Z,18.80
2023-11-14T03:00:42.944Z,18.95
2023-11-14T03:01:05.921Z,18.20
2023-11-14T03:01:28.781Z,18.38
2023-11-14T03:01:52.304Z,18.90
2023-11-14T03:02:15.215Z,20.13
2023-11-14T03:02:37.986Z,18.90
2023-11-14T03:03:00.824Z,18.58
2023-11-14T03:03:23.841Z,17.27
2023-11-14T03:03:47.714Z,18.30
2023-11-14T03:04:10.486Z,17.73
2023-11-14T03:04:33.479Z,19.33
2023-11-14T03:04:56.325Z,18.38
2023-11-14T03:05:19.100Z,17.52
2023-11-14T03:05:42.618Z,18.20
2023-11-14T03:06:06.282Z,17.15
2023-11-14T03:06:29.058Z,18.23
2023-11-14T03:06:51.786Z,19.02
2023-11-14T03:07:15.104Z,17.35
2023-11-14T03:07:38.046Z,18.65
2023-11-14T03:08:01.223Z,16.95
2023-11-14T03:08:24.261Z,19.85
2023-11-14T03:08:47.115Z,16.40
2023-11-14T03:09:09.973Z,16.27
2023-11-14T03:09:32.734Z,18.10
2023-11-14T03:09:55.469Z,18.45
2023-11-14T03:10:18.341Z,18.00
2023-11-14T03:10:44.509Z,17.08
2023-11-14T03:11:08.277Z,18.85
2023-11-14T03:11:31.081Z,18.38
2023-11-14T03:11:53.871Z,17.92
2023-11-14T03:12:17.173Z,18.83
2023-11-14T03:12:40.539Z,18.52
2023-11-14T03:13:08.061Z,15.57
2023-11-14T03:13:30.983Z,15.77
2023-11-14T03:13:54.008Z,15.40
2023-11-14T03:14:16.901Z,17.52
2023-11-14T03:14:39.726Z,16.55
2023-11-14T03:15:03.691Z,18.08
2023-11-14T03:15:27.592Z,16.73
2023-11-14T03:15:50.507Z,17.13
2023-11-14T03:16:16.290Z,16.98
2023-11-14T03:16:39.400Z,17.73
2023-11-14T03:17:02.891Z,16.42
2023-11-14T03:17:25.697Z,17.08
2023-11-14T03:17:48.567Z,16.02
2023-11-14T03:18:11.429Z,15.38
2023-11-14T03:18:34.192Z,16.13
2023-11-14T03:18:56.961Z,16.20
2023-11-14T03:19:19.807Z,17.77
2023-11-14T03:19:42.705Z,16.60
2023-11-14T03:20:11.853Z,16.02
2023-11-14T03:20:39.333Z,16.73
2023-11-14T03:21:04.672Z,17.23
2023-11-14T03:21:28.206Z,18.65
2023-11-14T03:21:50.946Z,18.23
2023-11-14T03:22:13.718Z,16.48
2023-11-14T03:22:36.538Z,15.98
2023-11-14T03:22:59.485Z,16.65
2023-11-14T03:23:22.326Z,16.25
2023-11-14T03:23:45.126Z,14.35
2023-11-14T03:24:09.380Z,14.60
2023-11-14T03:24:32.207Z,15.23
2023-11-14T03:24:55.006Z,16.73
2023-11-14T03:25:17.882Z,16.67
2023-11-14T03:25:42.514Z,15.30
2023-11-14T03:26:05.506Z,15.73
2023-11-14T03:26:32.614Z,14.98
2023-11-14T03:26:55.898Z,14.88
2023-11-14T03:27:18.818Z,15.48
2023-11-14T03:27:41.610Z,16.52
2023-11-14T03:28:06.065Z,15.38
2023-11-14T03:28:29.007Z,16.67
2023-11-14T03:28:51.750Z,14.93
2023-11-14T03:29:14.530Z,17.35
2023-11-14T03:29:37.334Z,18.17
2023-11-14T03:30:02.170Z,15.70
2023-11-14T03:30:25.223Z,16.38
2023-11-14T03:30:48.238Z,17.38
2023-11-14T03:31:11.000Z,15.55
2023-11-14T03:31:33.888Z,16.50
2023-11-14T03:31:56.828Z,16.88
2023-11-14T03:32:19.812Z,18.52
2023-11-14T03:32:43.376Z,18.48
2023-11-14T03:33:06.206Z,16.23
2023-11-14T03:33:29.076Z,15.77
2023-11-14T03:33:51.858Z,15.35
2023-11-14T03:34:14.618Z,16.98
2023-11-14T03:34:37.354Z,18.05
2023-11-14T03:35:00.234Z,18.08
2023-11-14T03:35:23.108Z,17.73
2023-11-14T03:35:45.884Z,16.25
2023-11-14T03:36:09.099Z,17.15
2023-11-14T03:36:31.928Z,17.08
2023-11-14T03:36:55.024Z,15.45
2023-11-14T03:37:17.806Z,16.30
2023-11-14T03:37:40.601Z,16.10
2023-11-14T03:38:03.482Z,17.30
2023-11-14T03:38:26.302Z,17.95
2023-11-14T03:38:49.170Z,16.52
2023-11-14T03:39:14.793Z,16.67
2023-11-14T03:39:37.548Z,17.10
2023-11-14T03:40:00.879Z,15.48
2023-11-14T03:40:23.906Z,15.38
2023-11-14T03:40:48.235Z,16.40
2023-11-14T03:41:11.117Z,15.57
2023-11-14T03:41:33.924Z,16.73
2023-11-14T03:41:56.683Z,17.02
2023-11-14T03:42:20.068Z,16.23
2023-11-14T03:42:43.416Z,16.98
2023-11-14T03:43:06.164Z,18.25
2023-11-14T03:43:28.933Z,18.05
2023-11-14T03:43:51.825Z,16.50
2023-11-14T03:44:14.686Z,17.98
2023-11-14T03:44:37.489Z,16.10
2023-11-14T03:45:00.387Z,16.60
2023-11-14T03:45:23.231Z,15.35
2023-11-14T03:45:46.097Z,17.60
2023-11-14T03:46:09.066Z,16.90
2023-11-14T03:46:31.961Z,17.17
2023-11-14T03:46:54.862Z,16.20
2023-11-14T03:47:17.642Z,16.10
2023-11-14T03:47:40.419Z,16.80
2023-11-14T03:48:03.773Z,18.02
2023-11-14T03:48:26.565Z,16.67
2023-11-14T03:48:49.435Z,14.32
2023-11-14T03:49:12.507Z,13.95
2023-11-14T03:49:35.331Z,16.45
2023-11-14T03:49:58.685Z,13.50
2023-11-14T03:50:22.631Z,15.20
2023-11-14T03:50:45.359Z,16.52
2023-11-14T03:51:11.008Z,15.80
2023-11-14T03:51:33.878Z,17.02
2023-11-14T03:51:57.097Z,15.65
2023-11-14T03:52:19.888Z,16.95
2023-11-14T03:52:42.804Z,15.40
2023-11-14T03:53:05.608Z,14.85
2023-11-14T03:53:28.409Z,16.90
2023-11-14T03:53:51.252Z,15.65
2023-11-14T03:54:14.061Z,15.48
2023-11-14T03:54:38.644Z,15.80
2023-11-14T03:55:01.408Z,16.33
2023-11-14T03:55:24.196Z,18.55
2023-11-14T03:55:49.242Z,18.90
2023-11-14T03:56:12.107Z,14.85
2023-11-14T03:56:34.958Z,15.40
2023-11-14T03:56:57.782Z,16.80
2023-11-14T03:57:22.632Z,15.80
2023-11-14T03:57:45.532Z,15.10
2023-11-14T03:58:08.361Z,15.93
2023-11-14T03:58:31.242Z,14.70
2023-11-14T03:58:54.240Z,17.23
2023-11-14T03:59:17.113Z,18.40
2023-11-14T03:59:39.962Z,17.50
2023-11-14T04:00:02.808Z,16.10
2023-11-14T04:00:25.796Z,17.23
2023-11-14T04:00:48.733Z,15.10
2023-11-14T04:01:11.599Z,15.07
2023-11-14T04:01:34.599Z,17.42
2023-11-14T04:01:57.920Z,14.75
2023-11-14T04:02:21.140Z,16.20
2023-11-14T04:02:44.958Z,16.13
2023-11-14T04:03:08.438Z,17.02
2023-11-14T04:03:31.270Z,14.40
2023-11-14T04:03:54.136Z,14.48
2023-11-14T04:04:16.954Z,13.75
2023-11-14T04:04:39.942Z,18.55
2023-11-14T04:05:02.807Z,17.48
2023-11-14T04:05:25.801Z,14.98
2023-11-14T04:05:48.661Z,14.77
2023-11-14T04:06:12.072Z,14.32
2023-11-14T04:06:34.942Z,14.10
2023-11-14T04:06:57.800Z,13.32
2023-11-14T04:07:20.610Z,14.13
2023-11-14T04:07:44.556Z,16.67
2023-11-14T04:08:07.709Z,16.48
2023-11-14T04:08:30.522Z,15.60
2023-11-14T04:08:53.347Z,14.93
2023-11-14T04:09:16.130Z,14.95
2023-11-14T04:09:41.698Z,15.48
2023-11-14T04:10:08.950Z,14.18
2023-11-14T04:10:35.406Z,14.48
2023-11-14T04:11:01.041Z,16.00
2023-11-14T04:11:24.557Z,16.67
2023-11-14T04:11:47.620Z,16.00
2023-11-14T04:12:10.472Z,16.20
2023-11-14T04:12:33.321Z,16.50
2023-11-14T04:12:56.274Z,13.75
2023-11-14T04:13:19.016Z,17.50
2023-11-14T04:13:41.946Z,18.15
2023-11-14T04:14:04.860Z,16.52
2023-11-14T04:14:27.770Z,15.35
2023-11-14T04:14:51.096Z,15.38
2023-11-14T04:15:15.292Z,16.67
2023-11-14T04:15:38.147Z,17.65
2023-11-14T04:16:01.814Z,17.50
2023-11-14T04:16:25.178Z,19.60
2023-11-14T04:16:48.034Z,16.13
2023-11-14T04:17:11.085Z,16.08
2023-11-14T04:17:34.368Z,16.63
2023-11-14T04:17:57.765Z,17.27
2023-11-14T04:18:20.779Z,15.60
2023-11-14T04:18:43.797Z,15.65
2023-11-14T04:19:06.799Z,16.08
2023-11-14T04:19:29.629Z,17.80
2023-11-14T04:19:52.491Z,17.67
2023-11-14T04:20:15.667Z,17.90
2023-11-14T04:20:38.550Z,16.95
2023-11-14T04:21:01.372Z,17.27
2023-11-14T04:21:24.197Z,16.30
2023-11-14T04:21:47.020Z,14.85
2023-11-14T04:22:09.823Z,14.68
2023-11-14T04:22:32.649Z,16.33
2023-11-14T04:22:55.483Z,16.77
2023-11-14T04:23:18.510Z,17.02
2023-11-14T04:23:42.030Z,15.50
2023-11-14T04:24:05.540Z,15.77
2023-11-14T04:24:28.373Z,16.08
2023-11-14T04:24:52.725Z,18.30
2023-11-14T04:25:15.566Z,15.00
2023-11-14T04:25:38.485Z,15.05
2023-11-14T04:26:02.875Z,14.85
2023-11-14T04:26:25.734Z,14.38
2023-11-14T04:26:48.556Z,16.45
2023-11-14T04:27:11.350Z,14.88
2023-11-14T04:27:34.201Z,16.02
2023-11-14T04:27:57.006Z,15.73
2023-11-14T04:28:19.956Z,15.60
2023-11-14T04:28:43.439Z,15.68
2023-11-14T04:29:06.343Z,17.08
2023-11-14T04:29:29.296Z,14.38
2023-11-14T04:29:52.196Z,15.15
2023-11-14T04:30:15.235Z,14.30
2023-11-14T04:30:38.028Z,14.63
2023-11-14T04:31:00.848Z,15.68
2023-11-14T04:31:23.656Z,19.35
2023-11-14T04:31:46.649Z,14.27
2023-11-14T04:32:09.611Z,14.07
2023-11-14T04:32:32.823Z,16.55
2023-11-14T04:32:56.188Z,17.60
2023-11-14T04:33:20.292Z,13.30
2023-11-14T04:33:43.175Z,14.77
2023-11-14T04:34:07.992Z,16.40
2023-11-14T04:34:30.838Z,13.82
2023-11-14T04:34:53.684Z,15.00
2023-11-14T04:35:16.537Z,15.65
2023-11-14T04:35:39.415Z,15.07
2023-11-14T04:36:02.187Z,12.88
2023-11-14T04:36:25.196Z,13.90
2023-11-14T04:36:48.051Z,14.68
2023-11-14T04:37:11.587Z,14.65
2023-11-14T04:37:34.374Z,13.07
2023-11-14T04:37:58.128Z,14.57
2023-11-14T04:38:21.076Z,15.10
2023-11-14T04:38:43.940Z,17.02
2023-11-14T04:39:07.097Z,16.90
2023-11-14T04:39:31.086Z,18.05
2023-11-14T04:39:54.475Z,14.45
2023-11-14T04:40:17.596Z,17.40
2023-11-14T04:40:40.466Z,14.15
2023-11-14T04:41:05.902Z,14.65
2023-11-14T04:41:28.927Z,13.13
2023-11-14T04:41:52.339Z,15.65
2023-11-14T04:42:15.686Z,16.05
2023-11-14T04:42:38.612Z,16.90
2023-11-14T04:43:01.432Z,15.88
2023-11-14T04:43:24.696Z,14.02
2023-11-14T04:43:47.501Z,14.88
2023-11-14T04:44:10.495Z,16.42
2023-11-14T04:44:33.441Z,16.33
2023-11-14T04:44:56.310Z,16.63
2023-11-14T04:45:19.161Z,16.27
2023-11-14T04:45:41.949Z,18.45
2023-11-14T04:46:06.322Z,14.63
2023-11-14T04:46:29.468Z,13.43
2023-11-14T04:46:52.459Z,15.25
2023-11-14T04:47:15.448Z,16.75
2023-11-14T04:47:38.408Z,16.92
2023-11-14T04:48:01.638Z,16.60
2023-11-14T04:48:24.506Z,18.13
2023-11-14T04:48:47.309Z,16.15
2023-11-14T04:49:10.322Z,17.98
2023-11-14T04:49:33.132Z,17.38
2023-11-14T04:49:55.997Z,18.25
2023-11-14T04:50:21.461Z,16.60
2023-11-14T04:50:44.509Z,17.50
2023-11-14T04:51:07.502Z,17.20
2023-11-14T04:51:30.348Z,17.02
2023-11-14T04:51:53.259Z,17.20
2023-11-14T04:52:16.121Z,16.13
2023-11-14T04:52:39.620Z,16.08
2023-11-14T04:53:02.408Z,15.00
2023-11-14T04:53:25.325Z,15.80
2023-11-14T04:53:48.163Z,16.73
2023-11-14T04:54:12.091Z,15.77
2023-11-14T04:54:34.842Z,16.15
2023-11-14T04:54:57.651Z,16.05
2023-11-14T04:55:20.655Z,14.63
2023-11-14T04:55:43.531Z,13.40
2023-11-14T04:56:08.357Z,15.65
2023-11-14T04:56:31.224Z,15.75
2023-11-14T04:56:55.401Z,15.60
2023-11-14T04:57:18.296Z,18.13
2023-11-14T04:57:41.154Z,14.88
2023-11-14T04:58:03.996Z,15.45
2023-11-14T04:58:26.815Z,16.25
2023-11-14T04:58:50.908Z,15.27
2023-11-14T04:59:13.916Z,14.00
2023-11-14T04:59:36.849Z,14.70
2023-11-14T05:00:00.581Z,15.85
2023-11-14T05:00:23.890Z,15.48
2023-11-14T05:00:47.149Z,16.30
2023-11-14T05:01:12.602Z,17.25
2023-11-14T05:01:35.638Z,13.68
2023-11-14T05:01:58.595Z,13.65
2023-11-14T05:02:21.477Z,16.25
2023-11-14T05:02:44.368Z,17.23
2023-11-14T05:03:07.386Z,13.35